Time;durP1;ratioP1;P1;durP2;ratioP2;P2;SDS_P1;SDS_P2;PMS_P1;PMS_P2;Temp;Humidity;BMP_temperature;BMP_pressure;BME280_temperature;BME280_humidity;BME280_pressure;Samples;Min_cycle;Max_cycle;Signal;HPM_P1;HPM_P2
2023/06/29 00:01:11;;;;;;;0.10;0.10;;;18.70;99.90;;;;;;5020191;28;20184;-81
2023/06/29 00:03:38;;;;;;;0.10;0.10;;;18.90;99.90;;;;;;5019213;28;20194;-80
2023/06/29 00:06:03;;;;;;;0.10;0.10;;;18.90;99.90;;;;;;5018413;28;20258;-80
2023/06/29 00:08:35;;;;;;;0.10;0.10;;;18.80;99.90;;;;;;5020948;28;20344;-80
2023/06/29 00:11:05;;;;;;;0.10;0.10;;;18.80;99.90;;;;;;5021380;28;20208;-80
2023/06/29 00:13:30;;;;;;;0.10;0.10;;;19.00;99.90;;;;;;5021126;28;20198;-80
2023/06/29 00:15:56;;;;;;;0.10;0.10;;;19.00;99.90;;;;;;5021042;28;20205;-80
2023/06/29 00:18:23;;;;;;;0.10;0.10;;;19.10;99.90;;;;;;5020955;28;20193;-80
2023/06/29 00:20:51;;;;;;;0.10;0.10;;;19.10;99.90;;;;;;5020035;28;20186;-80
2023/06/29 00:23:16;;;;;;;0.10;0.10;;;19.10;99.90;;;;;;5029266;28;20213;-80
2023/06/29 00:25:46;;;;;;;0.10;0.10;;;18.90;99.90;;;;;;5020393;28;20192;-80
2023/06/29 00:28:15;;;;;;;0.10;0.10;;;18.40;99.90;;;;;;5019645;28;20214;-80
2023/06/29 00:30:40;;;;;;;0.10;0.10;;;18.30;99.90;;;;;;5018439;28;20186;-80
2023/06/29 00:33:06;;;;;;;0.10;0.10;;;18.20;99.90;;;;;;5019771;28;20213;-81
2023/06/29 00:35:32;;;;;;;0.10;0.10;;;18.20;99.90;;;;;;5022714;28;20244;-80
2023/06/29 00:37:58;;;;;;;0.10;0.10;;;18.30;99.90;;;;;;5023752;28;20196;-80
2023/06/29 00:40:23;;;;;;;0.10;0.10;;;18.40;99.90;;;;;;5021390;28;20182;-80
2023/06/29 00:42:49;;;;;;;0.10;0.10;;;18.60;99.90;;;;;;5019479;28;20276;-80
2023/06/29 00:45:16;;;;;;;0.10;0.10;;;18.70;99.90;;;;;;5021862;28;20662;-80
2023/06/29 00:47:42;;;;;;;0.10;0.10;;;18.80;99.90;;;;;;5021197;28;20198;-80
2023/06/29 00:50:08;;;;;;;0.10;0.10;;;18.80;99.90;;;;;;5021674;28;20181;-81
2023/06/29 00:52:34;;;;;;;0.10;0.10;;;18.90;99.90;;;;;;5032730;28;20205;-80
2023/06/29 00:55:00;;;;;;;0.10;0.10;;;18.90;99.90;;;;;;5025515;28;20182;-80
2023/06/29 00:57:26;;;;;;;0.10;0.10;;;18.90;99.90;;;;;;5024426;28;20188;-80
2023/06/29 00:59:51;;;;;;;0.10;0.10;;;18.90;99.90;;;;;;5026464;28;20263;-80
2023/06/29 01:02:17;;;;;;;0.10;0.10;;;18.80;99.90;;;;;;5025209;28;20192;-80
2023/06/29 01:04:47;;;;;;;0.10;0.10;;;18.80;99.90;;;;;;5023112;28;20187;-80
2023/06/29 01:07:32;;;;;;;0.10;0.10;;;18.80;99.90;;;;;;5023123;28;20190;-80
2023/06/29 01:09:59;;;;;;;0.10;0.10;;;18.80;99.90;;;;;;5022865;28;21200;-80
2023/06/29 01:12:25;;;;;;;0.10;0.10;;;18.90;99.90;;;;;;5023933;28;20648;-80
2023/06/29 01:14:52;;;;;;;0.10;0.10;;;18.90;99.90;;;;;;5032225;28;20189;-80
2023/06/29 01:17:22;;;;;;;0.10;0.10;;;18.80;99.90;;;;;;5021072;28;20684;-80
2023/06/29 01:19:50;;;;;;;0.10;0.10;;;18.70;99.90;;;;;;5025049;28;20210;-80
2023/06/29 01:22:32;;;;;;;0.10;0.10;;;18.70;99.90;;;;;;5025123;28;20268;-81
2023/06/29 01:24:59;;;;;;;0.10;0.10;;;18.70;99.90;;;;;;5022846;28;20192;-80
2023/06/29 01:27:26;;;;;;;0.10;0.10;;;18.70;99.90;;;;;;5019561;28;20800;-81
2023/06/29 01:29:55;;;;;;;0.10;0.10;;;18.70;99.90;;;;;;5023518;28;20210;-81
2023/06/29 01:32:21;;;;;;;0.10;0.10;;;18.60;99.90;;;;;;5021382;28;20210;-80
2023/06/29 01:34:47;;;;;;;0.10;0.10;;;18.60;99.90;;;;;;5023287;28;20182;-80
2023/06/29 01:37:24;;;;;;;0.10;0.10;;;18.50;99.90;;;;;;5024192;28;20214;-80
2023/06/29 01:40:00;;;;;;;0.10;0.10;;;18.20;99.90;;;;;;5025184;28;20239;-81
2023/06/29 01:42:28;;;;;;;0.10;0.10;;;17.90;99.90;;;;;;5038235;28;20217;-80
2023/06/29 01:44:54;;;;;;;0.10;0.10;;;17.70;99.90;;;;;;5023456;28;20191;-80
2023/06/29 01:47:20;;;;;;;0.10;0.10;;;17.70;99.90;;;;;;5025922;28;20585;-80
2023/06/29 01:49:46;;;;;;;0.10;0.10;;;17.70;99.90;;;;;;5026123;28;20256;-80
2023/06/29 01:52:11;;;;;;;0.10;0.10;;;17.60;99.90;;;;;;5026699;28;20189;-81
2023/06/29 01:54:37;;;;;;;0.10;0.10;;;17.50;99.90;;;;;;5024539;28;20234;-80
2023/06/29 01:57:06;;;;;;;0.10;0.10;;;17.40;99.90;;;;;;5024703;28;20188;-81
2023/06/29 01:59:32;;;;;;;0.10;0.10;;;17.30;99.90;;;;;;5025322;28;20945;-80
2023/06/29 02:01:58;;;;;;;0.10;0.10;;;17.20;99.90;;;;;;5026354;28;20253;-80
2023/06/29 02:04:23;;;;;;;0.10;0.10;;;17.20;99.90;;;;;;5023955;28;20206;-80
2023/06/29 02:06:49;;;;;;;0.10;0.10;;;17.20;99.90;;;;;;5024106;28;20233;-80
2023/06/29 02:09:14;;;;;;;0.10;0.10;;;17.20;99.90;;;;;;5022841;28;20269;-80
2023/06/29 02:11:40;;;;;;;0.10;0.10;;;17.10;99.90;;;;;;5021136;28;20313;-80
2023/06/29 02:14:05;;;;;;;0.10;0.10;;;17.10;99.90;;;;;;5022485;28;20209;-80
2023/06/29 02:16:31;;;;;;;0.10;0.10;;;17.00;99.90;;;;;;5023156;28;20198;-80
2023/06/29 02:18:56;;;;;;;0.10;0.10;;;17.10;99.90;;;;;;5022864;28;20201;-80
2023/06/29 02:21:22;;;;;;;0.10;0.10;;;17.10;99.90;;;;;;5023633;28;20198;-80
2023/06/29 02:23:47;;;;;;;0.10;0.10;;;17.20;99.90;;;;;;5023837;28;20298;-80
2023/06/29 02:26:13;;;;;;;0.10;0.10;;;17.40;99.90;;;;;;5023777;28;20245;-80
2023/06/29 02:28:38;;;;;;;0.10;0.10;;;17.50;99.90;;;;;;5021278;28;20272;-80
2023/06/29 02:31:04;;;;;;;0.10;0.10;;;17.60;99.90;;;;;;5022712;28;20525;-80
2023/06/29 02:33:30;;;;;;;0.10;0.10;;;17.60;99.90;;;;;;5022156;28;20207;-80
2023/06/29 02:35:55;;;;;;;0.10;0.10;;;17.50;99.90;;;;;;5021335;28;21872;-80
2023/06/29 02:38:21;;;;;;;0.10;0.10;;;17.40;99.90;;;;;;5022659;28;20187;-80
2023/06/29 02:40:46;;;;;;;0.10;0.10;;;17.60;99.90;;;;;;5022577;28;20205;-80
2023/06/29 02:43:12;;;;;;;0.10;0.10;;;17.50;99.90;;;;;;5022682;28;20243;-80
2023/06/29 02:45:38;;;;;;;0.10;0.10;;;17.30;99.90;;;;;;5024247;28;20675;-81
2023/06/29 02:48:03;;;;;;;0.10;0.10;;;17.10;99.90;;;;;;5021190;28;20256;-80
2023/06/29 02:50:29;;;;;;;0.10;0.10;;;17.00;99.90;;;;;;5023231;28;20193;-80
2023/06/29 02:52:54;;;;;;;0.10;0.10;;;16.90;99.90;;;;;;5022061;28;20217;-80
2023/06/29 02:55:23;;;;;;;0.10;0.10;;;16.80;99.90;;;;;;5024320;28;20194;-80
2023/06/29 02:57:49;;;;;;;0.10;0.10;;;16.80;99.90;;;;;;5021546;28;20616;-80
2023/06/29 03:00:15;;;;;;;0.10;0.10;;;16.80;99.90;;;;;;5021086;28;20210;-80
2023/06/29 03:02:41;;;;;;;0.10;0.10;;;16.80;99.90;;;;;;5022656;28;20289;-80
2023/06/29 03:05:06;;;;;;;0.10;0.10;;;16.90;99.90;;;;;;5025483;28;20280;-81
2023/06/29 03:07:32;;;;;;;0.10;0.10;;;17.00;99.90;;;;;;5020195;28;20320;-80
2023/06/29 03:09:58;;;;;;;0.10;0.10;;;17.00;99.90;;;;;;5031107;28;20766;-80
2023/06/29 03:12:24;;;;;;;0.10;0.10;;;17.00;99.90;;;;;;5029758;28;20273;-80
2023/06/29 03:14:49;;;;;;;0.10;0.10;;;17.00;99.90;;;;;;5022335;28;21107;-81
2023/06/29 03:17:15;;;;;;;0.10;0.10;;;17.00;99.90;;;;;;5022798;28;20182;-81
2023/06/29 03:19:41;;;;;;;0.10;0.10;;;16.90;99.90;;;;;;5020993;28;20940;-80
2023/06/29 03:22:06;;;;;;;0.10;0.10;;;17.10;99.90;;;;;;5017753;28;20193;-80
2023/06/29 03:24:32;;;;;;;0.10;0.10;;;17.30;99.90;;;;;;5020126;28;20214;-80
2023/06/29 03:26:57;;;;;;;0.10;0.10;;;17.40;99.90;;;;;;5018383;28;20190;-80
2023/06/29 03:29:23;;;;;;;0.10;0.10;;;17.40;99.90;;;;;;5019500;28;20211;-80
2023/06/29 03:31:48;;;;;;;0.10;0.10;;;17.50;99.90;;;;;;5020750;28;20265;-80
2023/06/29 03:34:14;;;;;;;0.10;0.10;;;17.60;99.90;;;;;;5017646;28;20210;-80
2023/06/29 03:36:39;;;;;;;0.10;0.10;;;17.60;99.90;;;;;;5022567;28;20191;-80
2023/06/29 03:39:05;;;;;;;0.10;0.10;;;17.40;99.90;;;;;;5021003;28;20636;-80
2023/06/29 03:41:31;;;;;;;0.10;0.10;;;18.00;99.90;;;;;;5020747;28;20902;-80
2023/06/29 03:43:56;;;;;;;0.10;0.10;;;19.00;99.90;;;;;;5023281;28;20764;-80
2023/06/29 03:46:23;;;;;;;0.10;0.10;;;19.60;99.90;;;;;;5025463;28;20293;-80
2023/06/29 03:48:48;;;;;;;0.10;0.10;;;20.20;99.90;;;;;;5023665;28;20203;-80
2023/06/29 03:51:14;;;;;;;0.10;0.10;;;20.60;99.90;;;;;;5024070;28;20707;-80
2023/06/29 03:53:39;;;;;;;0.10;0.10;;;20.50;99.90;;;;;;5023819;28;20210;-80
2023/06/29 03:56:05;;;;;;;0.10;0.10;;;20.70;99.90;;;;;;5024003;28;20185;-80
2023/06/29 03:58:30;;;;;;;0.10;0.10;;;21.00;99.90;;;;;;5023296;28;20186;-80
2023/06/29 04:00:56;;;;;;;0.10;0.10;;;21.10;99.90;;;;;;5025937;28;20178;-81
2023/06/29 04:03:22;;;;;;;0.10;0.10;;;21.80;99.90;;;;;;5025352;28;20237;-80
2023/06/29 04:05:47;;;;;;;0.10;0.10;;;22.50;99.90;;;;;;5022422;28;20306;-80
2023/06/29 04:08:13;;;;;;;0.10;0.10;;;23.00;99.90;;;;;;5025219;28;20208;-81
2023/06/29 04:10:38;;;;;;;0.10;0.10;;;22.80;99.90;;;;;;5020872;28;20977;-81
2023/06/29 04:13:05;;;;;;;0.10;0.10;;;22.10;99.90;;;;;;5020320;28;20548;-81
2023/06/29 04:15:31;;;;;;;0.10;0.10;;;22.40;99.90;;;;;;5022098;28;20174;-79
2023/06/29 04:17:56;;;;;;;0.10;0.10;;;22.70;99.90;;;;;;5019115;28;20597;-79
2023/06/29 04:20:22;;;;;;;0.10;0.10;;;22.80;99.90;;;;;;5019616;28;20187;-80
2023/06/29 04:22:47;;;;;;;0.10;0.10;;;23.00;99.90;;;;;;5019998;28;20747;-79
2023/06/29 04:25:13;;;;;;;0.10;0.10;;;23.50;99.90;;;;;;5020992;28;20626;-80
2023/06/29 04:27:38;;;;;;;0.10;0.10;;;24.40;99.90;;;;;;5018429;28;20539;-80
2023/06/29 04:30:04;;;;;;;0.10;0.10;;;24.40;99.90;;;;;;5019582;28;20652;-80
2023/06/29 04:32:30;;;;;;;0.10;0.10;;;24.10;99.90;;;;;;5020737;28;20209;-79
2023/06/29 04:34:56;;;;;;;0.10;0.10;;;23.60;99.90;;;;;;5022302;28;20232;-79
2023/06/29 04:37:22;;;;;;;0.10;0.10;;;23.30;99.90;;;;;;5019623;28;20186;-80
2023/06/29 04:39:47;;;;;;;0.10;0.10;;;22.80;99.90;;;;;;5018164;28;20734;-80
2023/06/29 04:42:13;;;;;;;0.10;0.10;;;22.00;99.90;;;;;;5020020;28;20194;-82
2023/06/29 04:44:39;;;;;;;0.10;0.10;;;21.70;99.90;;;;;;5018207;28;20225;-81
2023/06/29 04:47:05;;;;;;;0.10;0.10;;;21.50;99.90;;;;;;5017937;28;20278;-81
2023/06/29 04:49:32;;;;;;;0.10;0.10;;;21.30;99.90;;;;;;5017160;28;20289;-81
2023/06/29 04:52:00;;;;;;;0.10;0.10;;;21.30;99.90;;;;;;5019057;28;20628;-81
2023/06/29 04:54:27;;;;;;;0.10;0.10;;;21.50;99.90;;;;;;5014063;28;20625;-82
2023/06/29 04:56:53;;;;;;;0.10;0.10;;;21.50;99.90;;;;;;5019724;28;20184;-80
2023/06/29 04:59:22;;;;;;;0.10;0.10;;;21.50;99.90;;;;;;5020380;28;20273;-80
2023/06/29 05:01:47;;;;;;;0.10;0.10;;;21.40;99.90;;;;;;5012787;28;20198;-81
2023/06/29 05:04:13;;;;;;;0.10;0.10;;;21.50;99.90;;;;;;5019649;28;20208;-81
2023/06/29 05:06:38;;;;;;;0.10;0.10;;;21.80;99.90;;;;;;5019713;28;20664;-81
2023/06/29 05:09:04;;;;;;;0.10;0.10;;;22.00;99.90;;;;;;5018601;28;20257;-80
2023/06/29 05:11:29;;;;;;;0.10;0.10;;;22.20;99.90;;;;;;5018599;28;20183;-80
2023/06/29 05:13:55;;;;;;;0.10;0.10;;;22.40;99.90;;;;;;5020462;28;20323;-81
2023/06/29 05:16:20;;;;;;;0.10;0.10;;;22.50;99.90;;;;;;5017196;28;20193;-79
2023/06/29 05:18:46;;;;;;;0.10;0.10;;;22.50;99.90;;;;;;5018395;28;20194;-81
2023/06/29 05:21:13;;;;;;;0.10;0.10;;;22.60;99.90;;;;;;5014120;28;20201;-81
2023/06/29 05:23:39;;;;;;;0.10;0.10;;;22.80;99.90;;;;;;5015546;28;20600;-81
2023/06/29 05:26:04;;;;;;;0.10;0.10;;;22.90;99.90;;;;;;5019809;28;20207;-81
2023/06/29 05:28:31;;;;;;;0.10;0.10;;;23.10;99.90;;;;;;5024306;28;20289;-80
2023/06/29 05:30:57;;;;;;;0.10;0.10;;;23.20;99.90;;;;;;5023307;28;20911;-81
2023/06/29 05:33:23;;;;;;;0.10;0.10;;;23.40;99.90;;;;;;5020973;28;20206;-81
2023/06/29 05:35:48;;;;;;;0.10;0.10;;;23.60;99.90;;;;;;5022062;28;20273;-82
2023/06/29 05:38:14;;;;;;;0.10;0.10;;;23.80;99.90;;;;;;5023089;28;20273;-82
2023/06/29 05:40:40;;;;;;;0.10;0.10;;;23.80;99.90;;;;;;5023709;28;20186;-82
2023/06/29 05:43:05;;;;;;;0.10;0.10;;;23.80;99.90;;;;;;5022872;28;20215;-81
2023/06/29 05:45:31;;;;;;;0.10;0.10;;;24.00;99.90;;;;;;5022133;28;20191;-80
2023/06/29 05:47:56;;;;;;;0.10;0.10;;;24.00;99.90;;;;;;5022711;28;20191;-81
2023/06/29 05:50:22;;;;;;;0.10;0.10;;;23.90;99.90;;;;;;5024782;28;20194;-80
2023/06/29 05:52:48;;;;;;;0.10;0.10;;;24.00;99.90;;;;;;5021667;28;20210;-80
2023/06/29 05:55:13;;;;;;;0.10;0.10;;;24.00;99.90;;;;;;5022906;28;20548;-82
2023/06/29 05:57:39;;;;;;;0.10;0.10;;;24.10;99.90;;;;;;5023591;28;20274;-80
2023/06/29 06:00:11;;;;;;;0.10;0.10;;;24.20;99.90;;;;;;5020071;28;20245;-81
2023/06/29 06:02:36;;;;;;;0.10;0.10;;;24.20;99.90;;;;;;5021507;28;20218;-81
2023/06/29 06:05:03;;;;;;;0.10;0.10;;;24.30;99.90;;;;;;5023952;28;20206;-81
2023/06/29 06:07:29;;;;;;;0.10;0.10;;;24.20;99.90;;;;;;5023360;28;20182;-80
2023/06/29 06:09:56;;;;;;;0.10;0.10;;;24.20;99.90;;;;;;5022201;28;20202;-81
2023/06/29 06:12:22;;;;;;;0.10;0.10;;;24.30;99.90;;;;;;5022349;28;20186;-81
2023/06/29 06:14:47;;;;;;;0.10;0.10;;;24.40;99.90;;;;;;5019709;28;20190;-81
2023/06/29 06:17:13;;;;;;;0.10;0.10;;;24.60;99.90;;;;;;5022067;28;20256;-81
2023/06/29 06:19:39;;;;;;;0.10;0.10;;;24.80;99.90;;;;;;5020074;28;20186;-81
2023/06/29 06:22:04;;;;;;;0.10;0.10;;;24.90;99.90;;;;;;5019943;28;20195;-81
2023/06/29 06:24:30;;;;;;;0.10;0.10;;;24.80;99.90;;;;;;5020629;28;20807;-82
2023/06/29 06:26:55;;;;;;;0.10;0.10;;;24.80;99.90;;;;;;5021641;28;20280;-81
2023/06/29 06:29:21;;;;;;;0.10;0.10;;;24.60;99.90;;;;;;5019571;28;20262;-80
2023/06/29 06:31:46;;;;;;;0.10;0.10;;;24.60;99.90;;;;;;5018448;28;21324;-81
2023/06/29 06:34:12;;;;;;;0.10;0.10;;;24.70;99.90;;;;;;5018542;28;20937;-81
2023/06/29 06:36:38;;;;;;;0.10;0.10;;;24.90;99.90;;;;;;5020065;28;20183;-82
2023/06/29 06:39:03;;;;;;;0.10;0.10;;;25.00;99.90;;;;;;5023186;28;20186;-81
2023/06/29 06:41:29;;;;;;;0.10;0.10;;;25.10;99.90;;;;;;5019915;28;20530;-84
2023/06/29 06:43:54;;;;;;;0.10;0.10;;;25.00;99.90;;;;;;5024391;28;20234;-82
2023/06/29 06:46:20;;;;;;;0.10;0.10;;;24.70;99.90;;;;;;5023506;28;20187;-84
2023/06/29 06:48:47;;;;;;;0.10;0.10;;;24.90;99.90;;;;;;5024034;28;20214;-84
2023/06/29 06:51:13;;;;;;;0.10;0.10;;;24.80;99.90;;;;;;5021575;28;20181;-82
2023/06/29 06:53:39;;;;;;;0.10;0.10;;;24.50;99.90;;;;;;5023381;28;20215;-83
2023/06/29 06:56:05;;;;;;;0.10;0.10;;;24.80;99.90;;;;;;5020754;28;20198;-83
2023/06/29 06:58:30;;;;;;;0.10;0.10;;;25.00;99.90;;;;;;5022398;28;20190;-82
2023/06/29 07:00:56;;;;;;;0.10;0.10;;;25.20;99.90;;;;;;5030836;28;20194;-82
2023/06/29 07:03:21;;;;;;;0.10;0.10;;;25.30;99.90;;;;;;5022116;28;20229;-86
2023/06/29 07:05:47;;;;;;;0.10;0.10;;;25.40;99.90;;;;;;5022742;28;20595;-82
2023/06/29 07:08:12;;;;;;;0.10;0.10;;;25.70;99.90;;;;;;5021443;28;20241;-82
2023/06/29 07:10:38;;;;;;;0.10;0.10;;;25.80;99.90;;;;;;5024266;28;20193;-84
2023/06/29 07:13:03;;;;;;;0.10;0.10;;;25.70;99.90;;;;;;5006760;28;20211;-83
2023/06/29 07:15:29;;;;;;;0.10;0.10;;;25.90;99.90;;;;;;5005962;28;20221;-85
2023/06/29 07:17:55;;;;;;;0.10;0.10;;;25.90;99.90;;;;;;5009011;28;20781;-82
2023/06/29 07:20:20;;;;;;;0.10;0.10;;;25.90;99.90;;;;;;5016761;28;20507;-85
2023/06/29 07:22:46;;;;;;;0.10;0.10;;;25.80;99.90;;;;;;4999148;28;20206;-84
2023/06/29 07:25:11;;;;;;;0.10;0.10;;;26.00;99.90;;;;;;5007471;28;20217;-86
2023/06/29 07:27:38;;;;;;;0.10;0.10;;;26.30;99.90;;;;;;5016389;28;20277;-82
2023/06/29 07:30:05;;;;;;;0.10;0.10;;;26.40;99.90;;;;;;5024011;28;20210;-82
2023/06/29 07:32:30;;;;;;;0.10;0.10;;;26.50;99.90;;;;;;5027160;28;20301;-87
2023/06/29 07:34:56;;;;;;;0.10;0.10;;;26.60;99.90;;;;;;5025199;28;20265;-82
2023/06/29 07:37:22;;;;;;;0.10;0.10;;;26.40;99.90;;;;;;5024942;28;20187;-81
2023/06/29 07:39:48;;;;;;;0.10;0.10;;;25.50;99.90;;;;;;5024250;28;20314;-83
2023/06/29 07:42:13;;;;;;;0.10;0.10;;;25.90;99.90;;;;;;5023432;28;20635;-84
2023/06/29 07:44:39;;;;;;;0.10;0.10;;;26.40;99.90;;;;;;5024587;28;20214;-86
2023/06/29 07:47:05;;;;;;;0.10;0.10;;;26.20;99.90;;;;;;5025577;28;20218;-83
2023/06/29 07:49:30;;;;;;;0.10;0.10;;;26.30;99.90;;;;;;5025186;28;20217;-83
2023/06/29 07:51:56;;;;;;;0.10;0.10;;;26.70;99.90;;;;;;5023570;28;20186;-82
2023/06/29 07:54:22;;;;;;;0.10;0.10;;;27.10;99.90;;;;;;5023497;28;20210;-82
2023/06/29 07:56:48;;;;;;;0.10;0.10;;;27.40;99.90;;;;;;5024000;28;20721;-84
2023/06/29 07:59:13;;;;;;;0.10;0.10;;;27.70;99.90;;;;;;5023339;28;20220;-81
2023/06/29 08:01:39;;;;;;;0.10;0.10;;;27.70;99.90;;;;;;5022224;28;20987;-83
2023/06/29 08:04:06;;;;;;;0.10;0.10;;;27.50;99.90;;;;;;5025151;28;20825;-81
2023/06/29 08:06:33;;;;;;;0.10;0.10;;;28.10;99.90;;;;;;5024824;28;20200;-82
2023/06/29 08:09:00;;;;;;;0.10;0.10;;;27.90;99.90;;;;;;5023462;28;20210;-87
2023/06/29 08:11:26;;;;;;;0.10;0.10;;;27.90;99.90;;;;;;5022774;28;20194;-82
2023/06/29 08:13:51;;;;;;;0.10;0.10;;;28.10;99.90;;;;;;5020539;28;20202;-85
2023/06/29 08:16:17;;;;;;;0.10;0.10;;;28.30;99.90;;;;;;5024918;28;20190;-87
2023/06/29 08:18:42;;;;;;;0.10;0.10;;;28.80;99.90;;;;;;5025140;28;20240;-82
2023/06/29 08:21:10;;;;;;;0.10;0.10;;;28.80;99.90;;;;;;5022905;28;20178;-86
2023/06/29 08:23:36;;;;;;;0.10;0.10;;;29.00;99.90;;;;;;5025200;28;20206;-82
2023/06/29 08:26:02;;;;;;;0.10;0.10;;;29.00;99.90;;;;;;5024623;28;20189;-87
2023/06/29 08:28:28;;;;;;;0.10;0.10;;;29.20;99.90;;;;;;5021561;28;20209;-87
2023/06/29 08:30:53;;;;;;;0.10;0.10;;;29.00;99.90;;;;;;5022667;28;20183;-82
2023/06/29 08:33:19;;;;;;;0.10;0.10;;;28.80;99.90;;;;;;5023266;28;20202;-81
2023/06/29 08:35:45;;;;;;;0.10;0.10;;;28.60;99.90;;;;;;5024217;28;20210;-82
2023/06/29 08:38:10;;;;;;;0.10;0.10;;;28.70;99.90;;;;;;5024523;28;21146;-82
2023/06/29 08:40:37;;;;;;;0.10;0.10;;;28.90;99.90;;;;;;5021629;28;20279;-87
2023/06/29 08:43:02;;;;;;;0.10;0.10;;;28.80;99.90;;;;;;5025089;28;20198;-82
2023/06/29 08:45:28;;;;;;;0.10;0.10;;;28.70;99.90;;;;;;5021752;28;20186;-83
2023/06/29 08:47:55;;;;;;;0.10;0.10;;;28.60;99.90;;;;;;5024726;28;20190;-82
2023/06/29 08:50:27;;;;;;;0.10;0.10;;;28.40;99.90;;;;;;5023730;28;20178;-81
2023/06/29 08:52:54;;;;;;;0.10;0.10;;;28.40;99.90;;;;;;5023290;28;20221;-83
2023/06/29 08:55:20;;;;;;;0.10;0.10;;;27.80;99.90;;;;;;5025082;28;20174;-84
2023/06/29 08:57:45;;;;;;;0.10;0.10;;;27.80;99.90;;;;;;5024040;28;20650;-82
2023/06/29 09:00:13;;;;;;;0.10;0.10;;;27.60;99.90;;;;;;5026104;28;20718;-81
2023/06/29 09:02:39;;;;;;;0.10;0.10;;;26.80;99.90;;;;;;5023193;28;20206;-83
2023/06/29 09:05:05;;;;;;;0.10;0.10;;;27.40;99.90;;;;;;5025635;28;20229;-86
2023/06/29 09:07:31;;;;;;;0.10;0.10;;;28.10;99.90;;;;;;5024540;28;20214;-82
2023/06/29 09:09:57;;;;;;;0.10;0.10;;;28.30;99.90;;;;;;5025395;28;20194;-81
2023/06/29 09:12:22;;;;;;;0.10;0.10;;;28.80;99.90;;;;;;5022800;28;20197;-83
2023/06/29 09:14:48;;;;;;;0.10;0.10;;;28.90;99.90;;;;;;5027227;28;20185;-82
2023/06/29 09:17:16;;;;;;;0.47;0.47;;;28.20;99.90;;;;;;5028352;28;20601;-85
2023/06/29 09:19:56;;;;;;;0.10;0.10;;;27.60;99.90;;;;;;5029434;28;20178;-82
2023/06/29 09:22:21;;;;;;;0.10;0.10;;;28.50;99.90;;;;;;5025984;28;20179;-83
2023/06/29 09:24:56;;;;;;;0.10;0.10;;;29.00;99.90;;;;;;5026584;28;20197;-84
2023/06/29 09:27:22;;;;;;;0.10;0.10;;;29.60;99.90;;;;;;5025157;28;20218;-87
2023/06/29 09:29:52;;;;;;;0.10;0.10;;;29.70;99.90;;;;;;5023349;28;20727;-84
2023/06/29 09:32:17;;;;;;;0.10;0.10;;;30.00;99.90;;;;;;5025125;28;20273;-83
2023/06/29 09:34:48;;;;;;;0.10;0.10;;;29.90;99.90;;;;;;5025792;28;20296;-82
2023/06/29 09:37:17;;;;;;;0.10;0.10;;;30.50;99.90;;;;;;5026884;28;20205;-82
2023/06/29 09:40:09;;;;;;;0.10;0.10;;;30.50;99.90;;;;;;5025654;28;20182;-81
2023/06/29 09:42:38;;;;;;;0.10;0.10;;;30.50;99.90;;;;;;5026396;28;20209;-82
2023/06/29 09:45:11;;;;;;;0.10;0.10;;;30.20;99.90;;;;;;5024887;28;20626;-83
2023/06/29 09:47:48;;;;;;;0.10;0.10;;;30.20;99.90;;;;;;5026283;28;20190;-84
2023/06/29 09:50:18;;;;;;;0.10;0.10;;;29.90;99.90;;;;;;5023413;28;20288;-81
2023/06/29 09:52:47;;;;;;;0.10;0.10;;;29.90;99.90;;;;;;5024049;28;20303;-81
2023/06/29 09:55:14;;;;;;;0.10;0.10;;;29.70;99.90;;;;;;5025832;28;20257;-82
2023/06/29 09:57:45;;;;;;;0.10;0.10;;;29.60;99.90;;;;;;5033870;28;20176;-83
2023/06/29 10:00:13;;;;;;;0.10;0.10;;;29.60;99.90;;;;;;5025416;28;20634;-82
2023/06/29 10:02:41;;;;;;;0.10;0.10;;;29.70;99.90;;;;;;5024032;28;20221;-83
2023/06/29 10:05:09;;;;;;;0.10;0.10;;;29.70;99.90;;;;;;5020480;28;20194;-82
2023/06/29 10:07:36;;;;;;;0.10;0.10;;;29.90;99.90;;;;;;5024855;28;20214;-86
2023/06/29 10:10:05;;;;;;;0.10;0.10;;;29.70;99.90;;;;;;5025657;28;20289;-82
2023/06/29 10:12:32;;;;;;;0.10;0.10;;;29.60;99.90;;;;;;5024624;28;20204;-83
2023/06/29 10:15:08;;;;;;;0.10;0.10;;;29.70;99.90;;;;;;5025214;28;20233;-83
2023/06/29 10:17:53;;;;;;;0.10;0.10;;;29.50;99.90;;;;;;5023507;28;20178;-87
2023/06/29 10:20:20;;;;;;;0.10;0.10;;;29.60;99.90;;;;;;5024283;28;21004;-82
2023/06/29 10:22:47;;;;;;;0.10;0.10;;;29.50;99.90;;;;;;5020136;28;20214;-83
2023/06/29 10:25:16;;;;;;;0.10;0.10;;;29.50;99.90;;;;;;5023965;28;20178;-82
2023/06/29 10:27:43;;;;;;;0.10;0.10;;;29.40;99.90;;;;;;5022582;28;20242;-82
2023/06/29 10:30:10;;;;;;;0.10;0.10;;;29.40;99.90;;;;;;5024257;28;20272;-83
2023/06/29 10:32:39;;;;;;;0.10;0.10;;;29.30;99.90;;;;;;5021581;28;20201;-86
2023/06/29 10:35:10;;;;;;;0.10;0.10;;;29.10;99.90;;;;;;5025807;28;20190;-83
2023/06/29 10:37:38;;;;;;;0.10;0.10;;;28.90;99.90;;;;;;5022506;28;20179;-82
2023/06/29 10:40:24;;;;;;;0.10;0.10;;;28.60;99.90;;;;;;5022584;28;20197;-84
2023/06/29 10:42:52;;;;;;;0.10;0.10;;;28.50;99.90;;;;;;5021519;28;20248;-86
2023/06/29 10:45:18;;;;;;;0.10;0.10;;;28.30;99.90;;;;;;5024817;28;20256;-82
2023/06/29 10:48:04;;;;;;;0.10;0.10;;;28.20;99.90;;;;;;5025033;28;20182;-82
2023/06/29 10:50:39;;;;;;;0.10;0.10;;;28.10;99.90;;;;;;5028413;28;20206;-84
2023/06/29 10:53:07;;;;;;;0.10;0.10;;;28.10;99.90;;;;;;5027057;28;20214;-85
2023/06/29 10:55:40;;;;;;;0.10;0.10;;;28.10;99.90;;;;;;5025339;28;20190;-82
2023/06/29 10:58:14;;;;;;;0.10;0.10;;;28.20;99.90;;;;;;5026234;28;20198;-82
2023/06/29 11:00:40;;;;;;;0.10;0.10;;;28.20;99.90;;;;;;5025785;28;20273;-87
2023/06/29 11:03:07;;;;;;;0.10;0.10;;;28.00;99.90;;;;;;5025295;28;20292;-86
2023/06/29 11:05:33;;;;;;;0.10;0.10;;;27.90;99.90;;;;;;5026938;28;20206;-85
2023/06/29 11:07:59;;;;;;;0.10;0.10;;;27.80;99.90;;;;;;5023583;28;20182;-82
2023/06/29 11:10:25;;;;;;;0.10;0.10;;;27.70;99.90;;;;;;5026678;28;20548;-86
2023/06/29 11:12:55;;;;;;;0.10;0.10;;;27.70;99.90;;;;;;5025771;28;20206;-82
2023/06/29 11:15:22;;;;;;;0.10;0.10;;;27.60;99.90;;;;;;5024846;28;20174;-83
2023/06/29 11:17:51;;;;;;;0.10;0.10;;;27.50;99.90;;;;;;5025790;28;20322;-82
2023/06/29 11:20:19;;;;;;;0.10;0.10;;;27.40;99.90;;;;;;5025002;28;20197;-82
2023/06/29 11:22:45;;;;;;;0.10;0.10;;;27.30;99.90;;;;;;5032262;28;20742;-82
2023/06/29 11:25:16;;;;;;;0.10;0.10;;;27.20;99.90;;;;;;5022294;28;20190;-85
2023/06/29 11:27:42;;;;;;;0.10;0.10;;;27.20;99.90;;;;;;5022047;28;20296;-82
2023/06/29 11:30:10;;;;;;;0.10;0.10;;;27.20;99.90;;;;;;5022395;28;20288;-82
2023/06/29 11:32:42;;;;;;;0.10;0.10;;;27.10;99.90;;;;;;5020986;28;20189;-83
2023/06/29 11:35:10;;;;;;;0.10;0.10;;;26.90;99.90;;;;;;5021819;28;20217;-82
2023/06/29 11:37:37;;;;;;;0.10;0.10;;;26.80;99.90;;;;;;5021795;28;20186;-85
2023/06/29 11:40:07;;;;;;;0.10;0.10;;;26.70;99.90;;;;;;5019133;28;20542;-82
2023/06/29 11:42:35;;;;;;;0.10;0.10;;;26.60;99.90;;;;;;5019914;28;20293;-82
2023/06/29 11:45:06;;;;;;;0.10;0.10;;;26.50;99.90;;;;;;5022683;28;20210;-83
2023/06/29 11:47:32;;;;;;;0.10;0.10;;;26.40;99.90;;;;;;5021938;28;20213;-82
2023/06/29 11:49:59;;;;;;;0.10;0.10;;;26.30;99.90;;;;;;5021917;28;20613;-82
2023/06/29 11:52:27;;;;;;;0.10;0.10;;;26.20;99.90;;;;;;5019648;28;20202;-82
2023/06/29 11:54:53;;;;;;;0.10;0.10;;;26.10;99.90;;;;;;5021375;28;20217;-82
2023/06/29 11:57:18;;;;;;;0.10;0.10;;;26.00;99.90;;;;;;5022612;28;20206;-83
2023/06/29 11:59:45;;;;;;;0.10;0.10;;;25.90;99.90;;;;;;5021051;28;20212;-84
2023/06/29 12:02:11;;;;;;;0.10;0.10;;;25.80;99.90;;;;;;5021895;28;20194;-83
2023/06/29 12:04:36;;;;;;;0.10;0.10;;;25.80;99.90;;;;;;5023953;28;20198;-82
2023/06/29 12:07:02;;;;;;;0.10;0.10;;;25.80;99.90;;;;;;5026586;28;20195;-82
2023/06/29 12:09:32;;;;;;;0.10;0.10;;;25.90;99.90;;;;;;5026253;28;20220;-85
2023/06/29 12:12:08;;;;;;;0.10;0.10;;;26.00;99.90;;;;;;5026657;28;20179;-81
2023/06/29 12:14:34;;;;;;;0.10;0.10;;;26.10;99.90;;;;;;5027074;28;20202;-81
2023/06/29 12:17:00;;;;;;;0.10;0.10;;;26.10;99.90;;;;;;5025250;28;20293;-81
2023/06/29 12:19:36;;;;;;;0.10;0.10;;;26.20;99.90;;;;;;5025857;28;20213;-84
2023/06/29 12:22:11;;;;;;;0.10;0.10;;;26.30;99.90;;;;;;5025169;28;20516;-81
2023/06/29 12:24:36;;;;;;;0.10;0.10;;;26.40;99.90;;;;;;5024615;28;21246;-83
2023/06/29 12:27:02;;;;;;;0.10;0.10;;;26.40;99.90;;;;;;5024824;28;20212;-81
2023/06/29 12:29:28;;;;;;;0.10;0.10;;;26.30;99.90;;;;;;5024723;28;20700;-83
2023/06/29 12:32:00;;;;;;;0.10;0.10;;;26.30;99.90;;;;;;5024935;28;20204;-86
2023/06/29 12:34:28;;;;;;;0.10;0.10;;;26.20;99.90;;;;;;5026217;28;20218;-83
2023/06/29 12:36:54;;;;;;;0.10;0.10;;;25.90;99.90;;;;;;5023426;28;20193;-82
2023/06/29 12:39:19;;;;;;;0.10;0.10;;;25.90;99.90;;;;;;5021241;28;20186;-82
2023/06/29 12:41:45;;;;;;;0.10;0.10;;;25.90;99.90;;;;;;5022250;28;20690;-82
2023/06/29 12:44:10;;;;;;;0.10;0.10;;;26.00;99.90;;;;;;5022125;28;20201;-81
2023/06/29 12:46:36;;;;;;;0.10;0.10;;;26.20;99.90;;;;;;5020301;28;20313;-82